createdAt,value
2022-10-31T00:00:26.932Z,76817.88
2022-10-31T00:04:28.548Z,76822.03
2022-10-31T00:08:31.319Z,76828.25
2022-10-31T00:12:32.950Z,76834.50
2022-10-31T00:16:34.427Z,76838.66
2022-10-31T00:20:36.015Z,76838.66
2022-10-31T00:24:38.819Z,76822.03
2022-10-31T00:28:40.402Z,76838.66
2022-10-31T00:32:41.833Z,76838.66
2022-10-31T00:36:43.243Z,76838.66
2022-10-31T00:40:45.988Z,76834.50
2022-10-31T00:44:47.371Z,76851.09
2022-10-31T00:48:48.932Z,76867.72
2022-10-31T00:52:50.524Z,76855.25
2022-10-31T00:56:53.290Z,76851.09
2022-10-31T01:00:54.860Z,76855.25
2022-10-31T01:04:56.272Z,76851.09
2022-10-31T01:08:57.852Z,76849.03
2022-10-31T01:13:00.995Z,76836.56
2022-10-31T01:17:02.660Z,76853.19
2022-10-31T01:21:06.127Z,76846.97
2022-10-31T01:25:09.735Z,76836.56
2022-10-31T01:29:12.512Z,76834.50
2022-10-31T01:33:13.927Z,76828.25
2022-10-31T01:37:15.467Z,76830.34
2022-10-31T01:41:18.856Z,76830.34
2022-10-31T01:45:22.215Z,76838.66
2022-10-31T01:49:34.963Z,76855.25
2022-10-31T01:53:37.081Z,76853.19
2022-10-31T01:57:43.083Z,76844.88
2022-10-31T02:01:47.298Z,76853.19
2022-10-31T02:05:50.159Z,76873.94
2022-10-31T02:09:53.888Z,76869.78
2022-10-31T02:13:55.632Z,76880.19
2022-10-31T02:18:00.386Z,76882.25
2022-10-31T02:22:10.715Z,76896.78
2022-10-31T02:26:31.303Z,76905.09
2022-10-31T02:30:41.343Z,76903.03
2022-10-31T02:34:52.523Z,76905.09
2022-10-31T02:39:11.394Z,76923.78
2022-10-31T02:43:19.497Z,76923.78
2022-10-31T02:47:25.251Z,76925.88
2022-10-31T02:51:28.275Z,76921.72
2022-10-31T02:55:50.287Z,76930.00
2022-10-31T02:59:57.199Z,76938.31
2022-10-31T03:04:13.443Z,76942.47
2022-10-31T03:08:23.460Z,76948.69
2022-10-31T03:12:30.574Z,76946.63
2022-10-31T03:16:40.840Z,76948.69
2022-10-31T03:20:47.472Z,76950.78
2022-10-31T03:24:52.754Z,76954.94
2022-10-31T03:28:58.220Z,76936.25
2022-10-31T03:33:04.069Z,76942.47
2022-10-31T03:37:09.675Z,76944.56
2022-10-31T03:41:19.155Z,76959.09
2022-10-31T03:45:25.486Z,76959.09
2022-10-31T03:49:28.228Z,76963.25
2022-10-31T03:53:34.996Z,76961.16
2022-10-31T03:57:42.292Z,76957.00
2022-10-31T04:01:49.902Z,76969.47
2022-10-31T04:05:55.866Z,76971.53
2022-10-31T04:10:00.176Z,76975.69
2022-10-31T04:14:05.603Z,76969.47
2022-10-31T04:18:07.201Z,76957.00
2022-10-31T04:22:08.851Z,76940.41
2022-10-31T04:26:12.699Z,76932.09
2022-10-31T04:30:15.600Z,76921.72
2022-10-31T04:34:18.334Z,76898.88
2022-10-31T04:38:20.199Z,76896.78
2022-10-31T04:42:21.591Z,76903.03
2022-10-31T04:46:24.403Z,76886.41
2022-10-31T04:50:25.915Z,76880.19
2022-10-31T04:54:27.438Z,76880.19
2022-10-31T04:58:29.215Z,76869.78
2022-10-31T05:02:32.093Z,76880.19
2022-10-31T05:06:34.735Z,76892.63
2022-10-31T05:10:36.215Z,76884.34
2022-10-31T05:14:38.364Z,76886.41
2022-10-31T05:18:41.109Z,76880.19
2022-10-31T05:22:43.471Z,76905.09
2022-10-31T05:26:46.063Z,76905.09
2022-10-31T05:30:48.545Z,76892.63
2022-10-31T05:34:53.762Z,76909.25
2022-10-31T05:38:55.128Z,76925.88
2022-10-31T05:42:58.327Z,76942.47
2022-10-31T05:47:00.147Z,76938.31
2022-10-31T05:51:02.987Z,76954.94
2022-10-31T05:55:05.146Z,76954.94
2022-10-31T05:59:06.556Z,76954.94
2022-10-31T06:07:17.407Z,76957.00
2022-10-31T06:11:18.811Z,76965.31
2022-10-31T06:15:24.040Z,76967.38
2022-10-31T06:19:26.179Z,76961.16
2022-10-31T06:23:29.035Z,76971.53
2022-10-31T06:27:30.576Z,76965.31
2022-10-31T06:31:32.080Z,76971.53
2022-10-31T06:35:33.635Z,76963.25
2022-10-31T06:39:36.588Z,76936.25
2022-10-31T06:43:38.089Z,76934.16
2022-10-31T06:47:56.672Z,76905.09
2022-10-31T06:52:01.173Z,76911.31
2022-10-31T06:56:04.273Z,76900.94
2022-10-31T07:00:07.168Z,76890.56
2022-10-31T07:04:09.486Z,76861.50
2022-10-31T07:08:12.874Z,76855.25
2022-10-31T07:12:16.551Z,76886.41
2022-10-31T07:16:18.119Z,76896.78
2022-10-31T07:20:19.791Z,76896.78
2022-10-31T07:24:21.480Z,76894.72
2022-10-31T07:28:25.067Z,76890.56
2022-10-31T07:32:26.682Z,76880.19
2022-10-31T07:36:28.232Z,76869.78
2022-10-31T07:40:29.674Z,76855.25
2022-10-31T07:44:32.395Z,76855.25
2022-10-31T07:48:33.955Z,76857.34
2022-10-31T07:52:35.541Z,76859.41
2022-10-31T07:56:37.016Z,76853.19
2022-10-31T08:00:42.252Z,76830.34
2022-10-31T08:04:43.713Z,76824.13
2022-10-31T08:08:45.168Z,76830.34
2022-10-31T08:12:46.584Z,76828.25
2022-10-31T08:16:49.330Z,76828.25
2022-10-31T08:20:50.911Z,76822.03
2022-10-31T08:24:52.270Z,76817.88
2022-10-31T08:28:53.760Z,76830.34
2022-10-31T08:33:01.290Z,76846.97
2022-10-31T08:37:02.739Z,76817.88
2022-10-31T08:41:04.197Z,76786.75
2022-10-31T08:45:06.088Z,76770.13
2022-10-31T08:49:09.054Z,76759.75
2022-10-31T08:53:12.997Z,76743.13
2022-10-31T08:57:14.419Z,76730.69
2022-10-31T09:01:15.936Z,76714.06
2022-10-31T09:05:18.979Z,76703.69
2022-10-31T09:09:20.403Z,76664.22
2022-10-31T09:13:24.165Z,76643.47
2022-10-31T09:17:27.559Z,76653.84
2022-10-31T09:21:30.338Z,76639.31
2022-10-31T09:25:33.465Z,76645.53
2022-10-31T09:29:34.911Z,76616.47
2022-10-31T09:33:36.404Z,76587.41
2022-10-31T09:37:39.149Z,76554.19
2022-10-31T09:42:05.215Z,76537.56
2022-10-31T09:46:15.864Z,76477.34
2022-10-31T09:50:22.100Z,76458.66
2022-10-31T09:54:29.534Z,76435.84
2022-10-31T09:58:39.078Z,76446.22
2022-10-31T10:02:45.657Z,76423.38
2022-10-31T10:06:50.168Z,76377.69
2022-10-31T10:11:00.017Z,76290.50
2022-10-31T10:15:34.611Z,76273.88
2022-10-31T10:19:58.377Z,76213.69
2022-10-31T10:24:11.947Z,76244.81
2022-10-31T10:28:21.177Z,76296.72
2022-10-31T10:32:26.236Z,76232.38
2022-10-31T10:36:34.473Z,76188.75
2022-10-31T10:40:36.129Z,76199.16
2022-10-31T10:44:43.083Z,76188.75
2022-10-31T10:48:46.323Z,76159.69
2022-10-31T10:52:53.900Z,76157.63
2022-10-31T10:57:06.220Z,76174.22
2022-10-31T11:01:12.938Z,76170.06
2022-10-31T11:05:23.224Z,76163.84
2022-10-31T11:09:24.793Z,76111.94
2022-10-31T11:13:26.407Z,76099.50
2022-10-31T11:17:32.825Z,76033.06
2022-10-31T11:21:35.392Z,76012.28
2022-10-31T11:25:37.020Z,76043.44
2022-10-31T11:29:38.630Z,76039.28
2022-10-31T11:33:47.389Z,76014.38
2022-10-31T11:37:51.363Z,76018.53
2022-10-31T11:41:54.921Z,75997.75
2022-10-31T11:45:57.577Z,75987.38
2022-10-31T11:50:03.091Z,75966.63
2022-10-31T11:54:05.843Z,75954.16
2022-10-31T11:58:21.591Z,75925.09
2022-10-31T12:02:23.281Z,75958.31
2022-10-31T12:06:32.584Z,75954.16
2022-10-31T12:10:41.484Z,75995.69
2022-10-31T12:14:56.214Z,75999.84
2022-10-31T12:19:03.214Z,75995.69
2022-10-31T12:23:14.024Z,75997.75
2022-10-31T12:27:29.531Z,75987.38
2022-10-31T12:31:44.851Z,75966.63
2022-10-31T12:35:52.639Z,75958.31
2022-10-31T12:40:08.131Z,75970.78
2022-10-31T12:44:30.575Z,75950.00
2022-10-31T12:48:57.130Z,75947.94
2022-10-31T12:53:09.848Z,75947.94
2022-10-31T12:57:22.172Z,75958.31
2022-10-31T13:01:27.573Z,75923.03
2022-10-31T13:05:33.312Z,75920.94
2022-10-31T13:09:42.025Z,75896.03
2022-10-31T13:13:51.399Z,75893.97
2022-10-31T13:17:56.928Z,75891.88
2022-10-31T13:22:04.277Z,75887.72
2022-10-31T13:26:11.087Z,75875.28
2022-10-31T13:30:17.636Z,75889.81
2022-10-31T13:34:26.209Z,75875.28
2022-10-31T13:38:34.299Z,75879.44
2022-10-31T13:42:50.651Z,75887.72
2022-10-31T13:46:54.516Z,75879.44
2022-10-31T13:50:57.743Z,75852.44
2022-10-31T13:54:59.173Z,75860.75
2022-10-31T13:59:17.772Z,75858.66
2022-10-31T14:03:36.139Z,75842.06
2022-10-31T14:07:44.544Z,75840.00
2022-10-31T14:11:47.872Z,75831.69
2022-10-31T14:15:56.063Z,75821.31
2022-10-31T14:20:01.259Z,75813.00
2022-10-31T14:24:13.893Z,75813.00
2022-10-31T14:28:31.883Z,75806.78
2022-10-31T14:32:33.358Z,75798.47
2022-10-31T14:36:44.707Z,75806.78
2022-10-31T14:41:04.657Z,75786.00
2022-10-31T14:45:24.920Z,75792.25
2022-10-31T14:49:41.960Z,75779.78
2022-10-31T14:53:49.027Z,75790.16
2022-10-31T14:57:53.481Z,75767.34
2022-10-31T15:01:59.845Z,75767.34
2022-10-31T15:06:06.345Z,75767.34
2022-10-31T15:10:22.249Z,75759.03
2022-10-31T15:14:26.200Z,75754.88
2022-10-31T15:18:28.921Z,75767.34
2022-10-31T15:22:31.970Z,75763.19
2022-10-31T15:26:39.985Z,75763.19
2022-10-31T15:30:51.217Z,75763.19
2022-10-31T15:34:54.359Z,75754.88
2022-10-31T15:38:56.645Z,75754.88
2022-10-31T15:43:02.714Z,75756.94
2022-10-31T15:47:05.767Z,75761.09
2022-10-31T15:51:07.264Z,75763.19
2022-10-31T15:55:19.628Z,75775.63
2022-10-31T15:59:25.566Z,75765.25
2022-10-31T16:03:29.616Z,75777.72
2022-10-31T16:07:31.543Z,75777.72
2022-10-31T16:11:36.315Z,75790.16
2022-10-31T16:15:49.181Z,75796.41
2022-10-31T16:19:55.028Z,75796.41
2022-10-31T16:24:03.784Z,75802.63
2022-10-31T16:28:18.658Z,75813.00
2022-10-31T16:32:35.130Z,75792.25
2022-10-31T16:36:36.765Z,75798.47
2022-10-31T16:40:39.839Z,75788.09
2022-10-31T16:44:44.490Z,75792.25
2022-10-31T16:48:47.714Z,75796.41
2022-10-31T16:57:17.077Z,75798.47
2022-10-31T17:01:19.397Z,75808.84
2022-10-31T17:05:23.503Z,75810.94
2022-10-31T17:09:25.093Z,75821.31
2022-10-31T17:13:29.795Z,75829.59
2022-10-31T17:17:31.183Z,75829.59
2022-10-31T17:21:35.851Z,75833.75
2022-10-31T17:25:37.798Z,75844.13
2022-10-31T17:29:39.228Z,75833.75
2022-10-31T17:33:40.637Z,75831.69
2022-10-31T17:37:44.688Z,75837.91
2022-10-31T17:41:49.716Z,75844.13
2022-10-31T17:45:51.451Z,75858.66
2022-10-31T17:49:53.322Z,75852.44
2022-10-31T17:53:57.358Z,75856.59
2022-10-31T17:57:58.931Z,75842.06
2022-10-31T18:02:00.633Z,75837.91
2022-10-31T18:06:02.215Z,75842.06
2022-10-31T18:10:06.288Z,75850.38
2022-10-31T18:14:09.383Z,75858.66
2022-10-31T18:18:11.023Z,75848.28
2022-10-31T18:22:12.686Z,75858.66
2022-10-31T18:26:15.441Z,75862.81
2022-10-31T18:30:17.129Z,75875.28
2022-10-31T18:34:18.917Z,75879.44
2022-10-31T18:38:20.676Z,75898.13
2022-10-31T18:42:23.491Z,75898.13
2022-10-31T18:46:25.011Z,75902.28
2022-10-31T18:50:26.534Z,75900.19
2022-10-31T18:54:27.975Z,75891.88
2022-10-31T18:58:32.435Z,75896.03
2022-10-31T19:02:33.985Z,75896.03
2022-10-31T19:06:35.672Z,75906.41
2022-10-31T19:10:38.206Z,75910.56
2022-10-31T19:14:41.022Z,75918.88
2022-10-31T19:18:43.324Z,75929.25
2022-10-31T19:22:44.754Z,75935.47
2022-10-31T19:26:46.351Z,75923.03
2022-10-31T19:30:53.890Z,75929.25
2022-10-31T19:34:55.284Z,75918.88
2022-10-31T19:38:57.624Z,75912.66
2022-10-31T19:42:59.054Z,75918.88
2022-10-31T19:47:01.803Z,75914.72
2022-10-31T19:51:05.234Z,75916.81
2022-10-31T19:55:07.198Z,75918.88
2022-10-31T19:59:08.696Z,75918.88
2022-10-31T20:03:11.648Z,75927.19
2022-10-31T20:07:13.650Z,75937.56
2022-10-31T20:11:15.629Z,75906.41
2022-10-31T20:15:17.391Z,75918.88
2022-10-31T20:19:20.217Z,75920.94
2022-10-31T20:23:21.988Z,75925.09
2022-10-31T20:27:23.610Z,75931.34
2022-10-31T20:31:27.443Z,75927.19
2022-10-31T20:35:30.368Z,75933.41
2022-10-31T20:39:32.026Z,75910.56
2022-10-31T20:43:34.240Z,75935.47
2022-10-31T20:47:35.943Z,75910.56
2022-10-31T20:51:38.754Z,75937.56
2022-10-31T20:55:40.468Z,75929.25
2022-10-31T20:59:41.960Z,75941.72
2022-10-31T21:03:44.435Z,75927.19
2022-10-31T21:07:47.460Z,75908.50
2022-10-31T21:11:49.053Z,75881.50
2022-10-31T21:15:59.518Z,75914.72
2022-10-31T21:20:00.938Z,75929.25
2022-10-31T21:24:05.674Z,75941.72
2022-10-31T21:28:08.391Z,75918.88
2022-10-31T21:32:10.000Z,75937.56
2022-10-31T21:36:12.198Z,75939.63
2022-10-31T21:40:15.084Z,75933.41
2022-10-31T21:44:16.636Z,75931.34
2022-10-31T21:48:18.253Z,75941.72
2022-10-31T21:52:19.789Z,75937.56
2022-10-31T21:56:23.121Z,75941.72
2022-10-31T22:00:24.552Z,75950.00
2022-10-31T22:04:26.157Z,75929.25
2022-10-31T22:08:28.338Z,75929.25
2022-10-31T22:12:31.081Z,75939.63
2022-10-31T22:16:35.100Z,75939.63
2022-10-31T22:20:36.521Z,75918.88
2022-10-31T22:24:38.114Z,75912.66
2022-10-31T22:28:41.729Z,75900.19
2022-10-31T22:32:43.180Z,75896.03
2022-10-31T22:36:45.544Z,75873.19
2022-10-31T22:40:47.060Z,75837.91
2022-10-31T22:44:49.830Z,75800.53
2022-10-31T22:48:54.052Z,75788.09
2022-10-31T22:52:55.595Z,75781.88
2022-10-31T22:56:57.213Z,75763.19
2022-10-31T23:01:00.592Z,75763.19
2022-10-31T23:05:02.272Z,75761.09
2022-10-31T23:09:05.784Z,75746.56
2022-10-31T23:13:08.724Z,75738.28
2022-10-31T23:17:11.491Z,75707.13
2022-10-31T23:21:13.288Z,75694.69
2022-10-31T23:25:14.792Z,75694.69
2022-10-31T23:29:16.236Z,75680.16
2022-10-31T23:33:19.039Z,75655.22
2022-10-31T23:37:22.578Z,75649.00
2022-10-31T23:41:24.135Z,75638.63
2022-10-31T23:45:25.608Z,75642.78
2022-10-31T23:49:28.340Z,75651.09
2022-10-31T23:53:29.862Z,75634.47
2022-10-31T23:57:31.282Z,75644.84
